(°C)
32°
31°
29°
27°
25°
24°
23°
(°C)
33°
32°
31°
29°
27°
26°
25°
ЗЮЗ
ЗЮЗ
ЗЮЗ
ЗЮЗ
З
З
ЗЮЗ
(км/ч)
8-13
7-12
5-9
4-7
4-6
4-5
4-5
(мм)
0
0
0
0
0
0
0
(%)
2
1
1
0
0
0
0

Высота солнцестояния

/ 22°
sun-icon
UV 6
04:07
21:14
Растущая луна (134°)
16:54
02:00

METAR для 53.5°С 50.15°В (UWWW)

Время Условия Температура/
Точка росы
Ветер Видимость Погода Облачность Давление Изменить Необработанный
VFR 32°C / 13°C 230º 8kt >10km - Few Clouds 3300ft 1021 No Significant change UWWW 211400Z 23004MPS 9999 FEW033 32/13 Q1021 R15/CLRD60 NOSIG RMK QFE754/1005
VFR 33°C / 14°C 240º variable 210º to 320º 8kt >10km - Few Clouds 3300ft 1021 No Significant change UWWW 211330Z 24004MPS 210V320 9999 FEW033 33/14 Q1021 R15/CLRD60 NOSIG RMK QFE754/1005
VFR 32°C / 14°C 250º variable 200º to 310º 10kt >10km - Few Clouds 3300ft 1021 No Significant change UWWW 211300Z 25005MPS 200V310 9999 FEW033 32/14 Q1021 R15/CLRD60 NOSIG RMK QFE754/1005
VFR 33°C / 15°C 270º 6kt. Wind Shear present on Runway 15. >10km - Few Clouds 3300ft 1021 No Significant change UWWW 211230Z 27003MPS 9999 FEW033 33/15 Q1021 WS R15 R15/CLRD60 NOSIG RMK QFE754/1005
VFR 32°C / 16°C 320º variable 260º to 020º 6kt >10km - Few Clouds 3300ft 1021 No Significant change UWWW 211200Z 32003MPS 260V020 9999 FEW033 32/16 Q1021 R15/CLRD60 NOSIG RMK QFE754/1006
VFR 32°C / 15°C 250º variable 190º to 310º 10kt >10km - Few Clouds 3300ft 1021 No Significant change UWWW 211130Z 25005MPS 190V310 9999 FEW033 32/15 Q1021 R15/CLRD60 NOSIG RMK QFE754/1006
VFR 32°C / 16°C 240º variable 200º to 300º 8kt >10km - Few Clouds 3300ft 1021 No Significant change UWWW 211100Z 24004MPS 200V300 9999 FEW033 32/16 Q1021 R15/CLRD60 NOSIG RMK QFE754/1006
VFR 33°C / 15°C 220º variable 190º to 280º 10kt. Wind Shear present on Runway 15. >10km - Few Clouds 3300ft 1022 No Significant change UWWW 211030Z 22005MPS 190V280 9999 FEW033 33/15 Q1022 WS R15 R15/CLRD60 NOSIG RMK QFE754/1006
VFR 31°C / 15°C 230º variable 170º to 280º 6kt >10km - Few Clouds 3300ft 1022 No Significant change UWWW 211000Z 23003MPS 170V280 9999 FEW033 31/15 Q1022 R15/CLRD60 NOSIG RMK QFE755/1006
VFR 31°C / 15°C 270º variable 210º to 330º 6kt >10km - Few Clouds 3300ft 1022 No Significant change UWWW 210930Z 27003MPS 210V330 9999 FEW033 31/15 Q1022 R15/CLRD60 NOSIG RMK QFE755/1006
VFR 32°C / 16°C 240º variable 200º to 300º 6kt >10km - Few Clouds 3300ft 1022 No Significant change UWWW 210900Z 24003MPS 200V300 9999 FEW033 32/16 Q1022 R15/CLRD60 NOSIG RMK QFE755/1007
VFR 31°C / 16°C 240º variable 210º to 280º 8kt >10km - Clouds and Visibility OK 1022 No Significant change UWWW 210830Z 24004MPS 210V280 CAVOK 31/16 Q1022 R15/CLRD60 NOSIG RMK QFE755/1007
VFR 31°C / 15°C 230º variable 190º to 270º 8kt >10km - Clouds and Visibility OK 1022 No Significant change UWWW 210800Z 23004MPS 190V270 CAVOK 31/15 Q1022 R15/CLRD60 NOSIG RMK QFE755/1007
VFR 30°C / 14°C 250º variable 220º to 300º 8kt >10km - Clouds and Visibility OK 1022 No Significant change UWWW 210730Z 25004MPS 220V300 CAVOK 30/14 Q1022 R15/CLRD60 NOSIG RMK QFE755/1007
VFR 30°C / 13°C 210º 8kt >10km - Clouds and Visibility OK 1023 No Significant change UWWW 210700Z 21004MPS CAVOK 30/13 Q1023 R15/CLRD60 NOSIG RMK QFE755/1007
VFR 29°C / 12°C 190º variable 150º to 240º 8kt >10km - Clouds and Visibility OK 1023 No Significant change UWWW 210630Z 19004MPS 150V240 CAVOK 29/12 Q1023 R15/CLRD60 NOSIG RMK QFE755/1007
VFR 29°C / 11°C 200º 10kt >10km - Clouds and Visibility OK 1023 No Significant change UWWW 210600Z 20005MPS CAVOK 29/11 Q1023 R15/CLRD60 NOSIG RMK QFE755/1007
VFR 28°C / 11°C 190º 8kt >10km - Clouds and Visibility OK 1023 No Significant change UWWW 210530Z 19004MPS CAVOK 28/11 Q1023 R15/CLRD60 NOSIG RMK QFE755/1007
VFR 27°C / 11°C 190º 8kt >10km - Clouds and Visibility OK 1023 No Significant change UWWW 210500Z 19004MPS CAVOK 27/11 Q1023 R15/CLRD60 NOSIG RMK QFE755/1007
VFR 27°C / 11°C 150º 8kt >10km - Clouds and Visibility OK 1023 No Significant change UWWW 210430Z 15004MPS CAVOK 27/11 Q1023 R15/CLRD60 NOSIG RMK QFE755/1007
VFR 26°C / 10°C 170º 10kt >10km - Clouds and Visibility OK 1023 No Significant change UWWW 210400Z 17005MPS CAVOK 26/10 Q1023 R15/CLRD60 NOSIG RMK QFE755/1007
VFR 26°C / 11°C 170º variable 130º to 200º 6kt >10km - Clouds and Visibility OK 1023 No Significant change UWWW 210330Z 17003MPS 130V200 CAVOK 26/11 Q1023 R15/CLRD60 NOSIG RMK QFE755/1007
VFR 24°C / 14°C 130º 4kt >10km - Clouds and Visibility OK 1023 No Significant change UWWW 210300Z 13002MPS CAVOK 24/14 Q1023 R15/CLRD60 NOSIG RMK QFE755/1007
VFR 23°C / 14°C 140º 4kt >10km - Clouds and Visibility OK 1023 No Significant change UWWW 210230Z 14002MPS CAVOK 23/14 Q1023 R15/CLRD60 NOSIG RMK QFE755/1007

VFR

32°C / 13°C

[Больше]
Ветер 230º 8kt
Видимость >10km
Погода -
Облачность Few Clouds 3300ft
Давление 1021
Изменить No Significant change
Необработанный UWWW 211400Z 23004MPS 9999 FEW033 32/13 Q1021 R15/CLRD60 NOSIG RMK QFE754/1005

VFR

33°C / 14°C

[Больше]
Ветер 240º variable 210º to 320º 8kt
Видимость >10km
Погода -
Облачность Few Clouds 3300ft
Давление 1021
Изменить No Significant change
Необработанный UWWW 211330Z 24004MPS 210V320 9999 FEW033 33/14 Q1021 R15/CLRD60 NOSIG RMK QFE754/1005

VFR

32°C / 14°C

[Больше]
Ветер 250º variable 200º to 310º 10kt
Видимость >10km
Погода -
Облачность Few Clouds 3300ft
Давление 1021
Изменить No Significant change
Необработанный UWWW 211300Z 25005MPS 200V310 9999 FEW033 32/14 Q1021 R15/CLRD60 NOSIG RMK QFE754/1005

VFR

33°C / 15°C

[Больше]
Ветер 270º 6kt. Wind Shear present on Runway 15.
Видимость >10km
Погода -
Облачность Few Clouds 3300ft
Давление 1021
Изменить No Significant change
Необработанный UWWW 211230Z 27003MPS 9999 FEW033 33/15 Q1021 WS R15 R15/CLRD60 NOSIG RMK QFE754/1005

VFR

32°C / 16°C

[Больше]
Ветер 320º variable 260º to 020º 6kt
Видимость >10km
Погода -
Облачность Few Clouds 3300ft
Давление 1021
Изменить No Significant change
Необработанный UWWW 211200Z 32003MPS 260V020 9999 FEW033 32/16 Q1021 R15/CLRD60 NOSIG RMK QFE754/1006

VFR

32°C / 15°C

[Больше]
Ветер 250º variable 190º to 310º 10kt
Видимость >10km
Погода -
Облачность Few Clouds 3300ft
Давление 1021
Изменить No Significant change
Необработанный UWWW 211130Z 25005MPS 190V310 9999 FEW033 32/15 Q1021 R15/CLRD60 NOSIG RMK QFE754/1006

VFR

32°C / 16°C

[Больше]
Ветер 240º variable 200º to 300º 8kt
Видимость >10km
Погода -
Облачность Few Clouds 3300ft
Давление 1021
Изменить No Significant change
Необработанный UWWW 211100Z 24004MPS 200V300 9999 FEW033 32/16 Q1021 R15/CLRD60 NOSIG RMK QFE754/1006

VFR

33°C / 15°C

[Больше]
Ветер 220º variable 190º to 280º 10kt. Wind Shear present on Runway 15.
Видимость >10km
Погода -
Облачность Few Clouds 3300ft
Давление 1022
Изменить No Significant change
Необработанный UWWW 211030Z 22005MPS 190V280 9999 FEW033 33/15 Q1022 WS R15 R15/CLRD60 NOSIG RMK QFE754/1006

VFR

31°C / 15°C

[Больше]
Ветер 230º variable 170º to 280º 6kt
Видимость >10km
Погода -
Облачность Few Clouds 3300ft
Давление 1022
Изменить No Significant change
Необработанный UWWW 211000Z 23003MPS 170V280 9999 FEW033 31/15 Q1022 R15/CLRD60 NOSIG RMK QFE755/1006

VFR

31°C / 15°C

[Больше]
Ветер 270º variable 210º to 330º 6kt
Видимость >10km
Погода -
Облачность Few Clouds 3300ft
Давление 1022
Изменить No Significant change
Необработанный UWWW 210930Z 27003MPS 210V330 9999 FEW033 31/15 Q1022 R15/CLRD60 NOSIG RMK QFE755/1006

VFR

32°C / 16°C

[Больше]
Ветер 240º variable 200º to 300º 6kt
Видимость >10km
Погода -
Облачность Few Clouds 3300ft
Давление 1022
Изменить No Significant change
Необработанный UWWW 210900Z 24003MPS 200V300 9999 FEW033 32/16 Q1022 R15/CLRD60 NOSIG RMK QFE755/1007

VFR

31°C / 16°C

[Больше]
Ветер 240º variable 210º to 280º 8kt
Видимость >10km
Погода -
Облачность Clouds and Visibility OK
Давление 1022
Изменить No Significant change
Необработанный UWWW 210830Z 24004MPS 210V280 CAVOK 31/16 Q1022 R15/CLRD60 NOSIG RMK QFE755/1007

VFR

31°C / 15°C

[Больше]
Ветер 230º variable 190º to 270º 8kt
Видимость >10km
Погода -
Облачность Clouds and Visibility OK
Давление 1022
Изменить No Significant change
Необработанный UWWW 210800Z 23004MPS 190V270 CAVOK 31/15 Q1022 R15/CLRD60 NOSIG RMK QFE755/1007

VFR

30°C / 14°C

[Больше]
Ветер 250º variable 220º to 300º 8kt
Видимость >10km
Погода -
Облачность Clouds and Visibility OK
Давление 1022
Изменить No Significant change
Необработанный UWWW 210730Z 25004MPS 220V300 CAVOK 30/14 Q1022 R15/CLRD60 NOSIG RMK QFE755/1007

VFR

30°C / 13°C

[Больше]
Ветер 210º 8kt
Видимость >10km
Погода -
Облачность Clouds and Visibility OK
Давление 1023
Изменить No Significant change
Необработанный UWWW 210700Z 21004MPS CAVOK 30/13 Q1023 R15/CLRD60 NOSIG RMK QFE755/1007

VFR

29°C / 12°C

[Больше]
Ветер 190º variable 150º to 240º 8kt
Видимость >10km
Погода -
Облачность Clouds and Visibility OK
Давление 1023
Изменить No Significant change
Необработанный UWWW 210630Z 19004MPS 150V240 CAVOK 29/12 Q1023 R15/CLRD60 NOSIG RMK QFE755/1007

VFR

29°C / 11°C

[Больше]
Ветер 200º 10kt
Видимость >10km
Погода -
Облачность Clouds and Visibility OK
Давление 1023
Изменить No Significant change
Необработанный UWWW 210600Z 20005MPS CAVOK 29/11 Q1023 R15/CLRD60 NOSIG RMK QFE755/1007

VFR

28°C / 11°C

[Больше]
Ветер 190º 8kt
Видимость >10km
Погода -
Облачность Clouds and Visibility OK
Давление 1023
Изменить No Significant change
Необработанный UWWW 210530Z 19004MPS CAVOK 28/11 Q1023 R15/CLRD60 NOSIG RMK QFE755/1007

VFR

27°C / 11°C

[Больше]
Ветер 190º 8kt
Видимость >10km
Погода -
Облачность Clouds and Visibility OK
Давление 1023
Изменить No Significant change
Необработанный UWWW 210500Z 19004MPS CAVOK 27/11 Q1023 R15/CLRD60 NOSIG RMK QFE755/1007

VFR

27°C / 11°C

[Больше]
Ветер 150º 8kt
Видимость >10km
Погода -
Облачность Clouds and Visibility OK
Давление 1023
Изменить No Significant change
Необработанный UWWW 210430Z 15004MPS CAVOK 27/11 Q1023 R15/CLRD60 NOSIG RMK QFE755/1007

VFR

26°C / 10°C

[Больше]
Ветер 170º 10kt
Видимость >10km
Погода -
Облачность Clouds and Visibility OK
Давление 1023
Изменить No Significant change
Необработанный UWWW 210400Z 17005MPS CAVOK 26/10 Q1023 R15/CLRD60 NOSIG RMK QFE755/1007

VFR

26°C / 11°C

[Больше]
Ветер 170º variable 130º to 200º 6kt
Видимость >10km
Погода -
Облачность Clouds and Visibility OK
Давление 1023
Изменить No Significant change
Необработанный UWWW 210330Z 17003MPS 130V200 CAVOK 26/11 Q1023 R15/CLRD60 NOSIG RMK QFE755/1007

VFR

24°C / 14°C

[Больше]
Ветер 130º 4kt
Видимость >10km
Погода -
Облачность Clouds and Visibility OK
Давление 1023
Изменить No Significant change
Необработанный UWWW 210300Z 13002MPS CAVOK 24/14 Q1023 R15/CLRD60 NOSIG RMK QFE755/1007

VFR

23°C / 14°C

[Больше]
Ветер 140º 4kt
Видимость >10km
Погода -
Облачность Clouds and Visibility OK
Давление 1023
Изменить No Significant change
Необработанный UWWW 210230Z 14002MPS CAVOK 23/14 Q1023 R15/CLRD60 NOSIG RMK QFE755/1007

TAF для 53.5°С 50.15°В (UWWW)

From till


Maximum Temperature 32ºC on . Minimum Temperature 19ºC on .
From till Wind 270º 6kt. Gust 16kt. Visibility 10km or more. Scattered Clouds 3300ft.
Temporarly from till Wind 230º 12kt. Gust 23kt. Scattered Clouds 2000ft.
Temporarly from till Wind 320º 12kt. Gust 23kt.

Необработанный: TAF UWWW 211050Z 2112/2212 27003G08MPS 9999 SCT033 TX32/2210Z TN19/2201Z TEMPO 2112/2115 23006G12MPS SCT020CB TEMPO 2204/2212 32006G12MPS

Текущие спутниковые изображения и снимки дождя для 53.5°С 50.15°В

Указатель местности находится на 53.5°С 50.15°В. [Больше]

Спутниковое изображение в реальном времени сочетает в себе видимый свет в дневное время с инфракрасным излучением в ночное время. Ночью изображение получается не темным, так как инфракрасное излучение может обнаружить разницу температур. К сожалению, низкие облака и туман трудно отличить от температуры у поверхности земли и поэтому могут быть почти незаметны ночью. Спутниковые снимки Meteosat для Европы обновляются каждые 5 минут в режиме реального времени.Снимки GOES-16/GOES-17 (Северная и Южная Америка) и Химавари (Азия) обновляются каждые 10 минут.

Копирайт 2021 EUMETSAT / meteoblue. / Копирайт 2021 meteoblue

Радарный и сверхкраткосрочный прогноз осадков для 53.5°С 50.15°В

Индикатор местности находится на 53.5°С 50.15°В. Анимация показывает радар осадков за последний час, а также прогноз погоды для1h. Умеренная морось или легкий снег могут быть незаметны для радара. Интенсивность осадковмаркированна цветной кодировкой, начиная со светло-синего и заканчивая темно-пурпурным.